createdAt,value
2018-08-28T00:01:05.266Z,2.80
2018-08-28T00:02:11.412Z,3.28
2018-08-28T00:03:17.072Z,3.37
2018-08-28T00:04:22.701Z,3.37
2018-08-28T00:05:28.676Z,3.45
2018-08-28T00:06:34.778Z,3.35
2018-08-28T00:07:41.841Z,3.45
2018-08-28T00:08:47.608Z,3.33
2018-08-28T00:09:53.624Z,3.50
2018-08-28T00:10:59.765Z,3.10
2018-08-28T00:12:05.171Z,3.55
2018-08-28T00:13:11.170Z,3.50
2018-08-28T00:14:17.220Z,3.70
2018-08-28T00:15:22.894Z,3.80
2018-08-28T00:16:28.832Z,3.35
2018-08-28T00:17:34.876Z,3.78
2018-08-28T00:18:40.944Z,2.87
2018-08-28T00:19:46.972Z,3.60
2018-08-28T00:20:52.968Z,3.70
2018-08-28T00:21:59.062Z,3.30
2018-08-28T00:23:04.719Z,3.78
2018-08-28T00:24:10.960Z,3.72
2018-08-28T00:25:16.964Z,3.62
2018-08-28T00:26:24.045Z,3.87
2018-08-28T00:27:35.115Z,3.72
2018-08-28T00:28:41.240Z,3.50
2018-08-28T00:29:46.968Z,3.55
2018-08-28T00:30:53.036Z,3.35
2018-08-28T00:31:58.680Z,3.35
2018-08-28T00:33:04.412Z,3.35
2018-08-28T00:34:10.435Z,3.17
2018-08-28T00:35:16.211Z,3.20
2018-08-28T00:36:22.231Z,3.72
2018-08-28T00:37:28.260Z,3.30
2018-08-28T00:38:34.267Z,3.72
2018-08-28T00:39:40.383Z,3.83
2018-08-28T00:40:46.461Z,3.22
2018-08-28T00:41:52.567Z,3.40
2018-08-28T00:42:58.716Z,3.70
2018-08-28T00:44:05.292Z,3.40
2018-08-28T00:45:11.302Z,3.87
2018-08-28T00:46:17.409Z,3.35
2018-08-28T00:47:23.571Z,3.40
2018-08-28T00:48:29.298Z,3.47
2018-08-28T00:49:35.348Z,3.62
2018-08-28T00:50:40.991Z,3.60
2018-08-28T00:51:46.930Z,3.15
2018-08-28T00:52:57.940Z,3.42
2018-08-28T00:54:04.047Z,3.05
2018-08-28T00:55:09.861Z,3.80
2018-08-28T00:56:16.129Z,3.55
2018-08-28T00:57:22.273Z,3.28
2018-08-28T00:58:28.307Z,3.35
2018-08-28T00:59:34.288Z,3.20
2018-08-28T01:00:45.405Z,3.35
2018-08-28T01:01:51.406Z,3.70
2018-08-28T01:02:57.078Z,3.85
2018-08-28T01:04:03.214Z,3.55
2018-08-28T01:05:08.101Z,3.62
2018-08-28T01:06:14.196Z,3.25
2018-08-28T01:07:20.299Z,4.20
2018-08-28T01:08:26.452Z,4.03
2018-08-28T01:09:32.448Z,3.65
2018-08-28T01:10:38.563Z,3.85
2018-08-28T01:11:44.635Z,3.62
2018-08-28T01:12:50.648Z,3.70
2018-08-28T01:13:56.684Z,3.80
2018-08-28T01:15:06.201Z,3.40
2018-08-28T01:16:12.230Z,3.60
2018-08-28T01:17:18.341Z,3.65
2018-08-28T01:18:24.568Z,3.62
2018-08-28T01:19:30.557Z,3.60
2018-08-28T01:20:36.619Z,3.35
2018-08-28T01:21:42.564Z,3.40
2018-08-28T01:22:48.605Z,3.30
2018-08-28T01:23:54.577Z,4.10
2018-08-28T01:25:00.697Z,3.25
2018-08-28T01:26:06.459Z,3.70
2018-08-28T01:27:12.521Z,3.50
2018-08-28T01:28:18.499Z,3.40
2018-08-28T01:29:24.500Z,3.33
2018-08-28T01:30:30.276Z,3.53
2018-08-28T01:31:37.315Z,3.60
2018-08-28T01:32:43.364Z,3.78
2018-08-28T01:33:49.361Z,3.00
2018-08-28T01:34:55.323Z,4.03
2018-08-28T01:36:01.391Z,4.25
2018-08-28T01:37:07.387Z,4.00
2018-08-28T01:38:14.527Z,3.53
2018-08-28T01:39:20.508Z,4.10
2018-08-28T01:40:26.482Z,3.97
2018-08-28T01:41:32.529Z,4.35
2018-08-28T01:42:38.495Z,4.10
2018-08-28T01:43:44.531Z,3.70
2018-08-28T01:44:50.286Z,3.55
2018-08-28T01:45:56.320Z,4.40
2018-08-28T01:47:02.832Z,3.87
2018-08-28T01:48:08.945Z,4.10
2018-08-28T01:49:15.080Z,4.07
2018-08-28T01:50:20.950Z,3.35
2018-08-28T01:51:27.091Z,3.85
2018-08-28T01:52:33.062Z,4.07
2018-08-28T01:53:38.918Z,4.65
2018-08-28T01:54:44.850Z,4.37
2018-08-28T01:55:50.860Z,3.90
2018-08-28T01:56:56.776Z,4.20
2018-08-28T01:58:03.671Z,3.83
2018-08-28T01:59:09.379Z,3.53
2018-08-28T02:00:15.400Z,3.92
2018-08-28T02:01:21.462Z,3.60
2018-08-28T02:02:27.507Z,4.15
2018-08-28T02:03:33.643Z,3.70
2018-08-28T02:04:39.404Z,4.10
2018-08-28T02:05:45.463Z,3.62
2018-08-28T02:06:51.423Z,4.47
2018-08-28T02:07:58.111Z,4.85
2018-08-28T02:09:03.493Z,4.43
2018-08-28T02:10:09.584Z,4.00
2018-08-28T02:11:15.555Z,4.37
2018-08-28T02:12:21.562Z,3.62
2018-08-28T02:13:27.693Z,4.05
2018-08-28T02:14:33.732Z,4.43
2018-08-28T02:15:39.786Z,4.20
2018-08-28T02:16:45.401Z,5.50
2018-08-28T02:17:51.381Z,4.60
2018-08-28T02:18:57.286Z,4.45
2018-08-28T02:20:03.259Z,5.82
2018-08-28T02:21:09.245Z,4.70
2018-08-28T02:22:15.177Z,5.32
2018-08-28T02:23:21.301Z,4.80
2018-08-28T02:24:27.443Z,4.87
2018-08-28T02:25:33.516Z,5.53
2018-08-28T02:26:39.282Z,4.80
2018-08-28T02:27:45.639Z,4.68
2018-08-28T02:28:51.767Z,5.97
2018-08-28T02:29:57.930Z,4.78
2018-08-28T02:31:03.956Z,5.25
2018-08-28T02:32:09.945Z,5.05
2018-08-28T02:33:15.955Z,5.20
2018-08-28T02:34:23.024Z,5.15
2018-08-28T02:35:28.736Z,4.65
2018-08-28T02:36:34.701Z,4.95
2018-08-28T02:37:40.696Z,5.25
2018-08-28T02:38:46.809Z,5.30
2018-08-28T02:39:52.920Z,5.18
2018-08-28T02:40:59.030Z,5.22
2018-08-28T02:42:05.930Z,5.72
2018-08-28T02:43:13.043Z,5.65
2018-08-28T02:44:19.003Z,5.85
2018-08-28T02:45:25.115Z,5.40
2018-08-28T02:46:31.188Z,5.55
2018-08-28T02:47:37.320Z,5.37
2018-08-28T02:48:43.406Z,5.05
2018-08-28T02:49:49.452Z,5.72
2018-08-28T02:50:55.571Z,4.68
2018-08-28T02:52:01.538Z,6.15
2018-08-28T02:53:07.665Z,5.03
2018-08-28T02:54:13.431Z,5.80
2018-08-28T02:55:19.446Z,5.28
2018-08-28T02:56:25.099Z,5.80
2018-08-28T02:57:31.183Z,5.25
2018-08-28T02:58:37.763Z,5.03
2018-08-28T02:59:43.795Z,5.25
2018-08-28T03:00:49.869Z,5.45
2018-08-28T03:01:55.893Z,5.80
2018-08-28T03:03:01.715Z,5.30
2018-08-28T03:04:07.887Z,5.15
2018-08-28T03:05:13.980Z,5.07
2018-08-28T03:06:19.882Z,5.37
2018-08-28T03:07:25.931Z,5.62
2018-08-28T03:08:32.021Z,4.28
2018-08-28T03:09:38.149Z,4.22
2018-08-28T03:10:44.171Z,4.57
2018-08-28T03:11:50.165Z,4.60
2018-08-28T03:12:56.246Z,5.03
2018-08-28T03:14:02.482Z,4.47
2018-08-28T03:15:08.197Z,4.90
2018-08-28T03:16:14.258Z,4.57
2018-08-28T03:17:20.280Z,5.03
2018-08-28T03:18:26.375Z,6.53
2018-08-28T03:19:32.511Z,4.70
2018-08-28T03:20:38.144Z,4.80
2018-08-28T03:21:43.957Z,4.60
2018-08-28T03:22:49.970Z,5.20
2018-08-28T03:23:56.687Z,4.95
2018-08-28T03:25:02.739Z,5.25
2018-08-28T03:26:08.703Z,5.55
2018-08-28T03:27:14.634Z,4.50
2018-08-28T03:28:20.618Z,4.80
2018-08-28T03:29:26.720Z,5.07
2018-08-28T03:30:32.864Z,6.00
2018-08-28T03:31:39.768Z,5.00
2018-08-28T03:32:45.753Z,5.20
2018-08-28T03:33:51.756Z,5.60
2018-08-28T03:34:57.577Z,5.18
2018-08-28T03:36:03.585Z,5.85
2018-08-28T03:37:09.456Z,4.68
2018-08-28T03:38:15.496Z,5.55
2018-08-28T03:39:21.128Z,5.12
2018-08-28T03:40:27.116Z,5.05
2018-08-28T03:41:33.725Z,5.22
2018-08-28T03:42:39.803Z,5.53
2018-08-28T03:43:45.814Z,5.68
2018-08-28T03:44:51.868Z,5.53
2018-08-28T03:45:58.022Z,4.95
2018-08-28T03:47:04.743Z,4.90
2018-08-28T03:48:10.901Z,5.93
2018-08-28T03:49:17.064Z,5.45
2018-08-28T03:50:23.096Z,6.12
2018-08-28T03:51:29.214Z,4.03
2018-08-28T03:52:36.509Z,4.55
2018-08-28T03:53:52.314Z,5.07
2018-08-28T03:55:07.908Z,4.68
2018-08-28T03:56:26.156Z,4.60
2018-08-28T03:57:47.499Z,5.00
2018-08-28T03:59:01.201Z,5.15
2018-08-28T04:00:20.587Z,5.35
2018-08-28T04:01:38.973Z,5.32
2018-08-28T04:02:57.234Z,6.15
2018-08-28T04:04:13.871Z,6.03
2018-08-28T04:05:33.572Z,5.93
2018-08-28T04:06:52.072Z,5.30
2018-08-28T04:08:10.367Z,5.15
2018-08-28T04:09:28.223Z,5.40
2018-08-28T04:10:43.274Z,5.57
2018-08-28T04:11:59.958Z,5.40
2018-08-28T04:13:16.050Z,5.10
2018-08-28T04:14:33.182Z,6.50
2018-08-28T04:15:50.107Z,5.43
2018-08-28T04:17:07.609Z,5.15
2018-08-28T04:18:25.283Z,5.70
2018-08-28T04:19:35.747Z,5.10
2018-08-28T04:20:46.885Z,5.75
2018-08-28T04:21:53.000Z,5.45
2018-08-28T04:22:59.102Z,5.62
2018-08-28T04:24:04.861Z,5.93
2018-08-28T04:25:10.936Z,5.20
2018-08-28T04:26:17.223Z,6.50
2018-08-28T04:27:23.356Z,5.75
2018-08-28T04:28:29.327Z,7.62
2018-08-28T04:29:35.894Z,5.72
2018-08-28T04:30:41.860Z,6.55
2018-08-28T04:31:47.833Z,5.55
2018-08-28T04:32:53.832Z,5.18
2018-08-28T04:34:00.036Z,6.72
2018-08-28T04:35:05.709Z,5.30
2018-08-28T04:36:11.673Z,6.10
2018-08-28T04:37:17.803Z,6.43
2018-08-28T04:38:23.964Z,6.37
2018-08-28T04:39:29.974Z,6.50
2018-08-28T04:40:36.001Z,6.65
2018-08-28T04:41:42.714Z,6.00
2018-08-28T04:42:48.706Z,6.70
2018-08-28T04:43:54.810Z,6.10
2018-08-28T04:45:00.950Z,4.82
2018-08-28T04:46:07.203Z,6.47
2018-08-28T04:47:12.830Z,5.15
2018-08-28T04:48:18.595Z,5.90
2018-08-28T04:49:24.517Z,5.93
2018-08-28T04:50:30.670Z,6.20
2018-08-28T04:51:36.455Z,5.28
2018-08-28T04:52:43.220Z,6.40
2018-08-28T04:53:49.604Z,6.78
2018-08-28T04:54:55.691Z,5.45
2018-08-28T04:56:01.917Z,5.65
2018-08-28T04:57:08.000Z,6.78
2018-08-28T04:58:14.033Z,5.55
2018-08-28T04:59:20.155Z,6.90
2018-08-28T05:00:26.122Z,5.60
2018-08-28T05:01:32.253Z,5.87
2018-08-28T05:02:38.268Z,6.03
2018-08-28T05:03:44.533Z,6.62
2018-08-28T05:04:51.105Z,7.28
2018-08-28T05:05:57.183Z,6.87
2018-08-28T05:07:03.260Z,6.72
2018-08-28T05:08:08.923Z,6.22
2018-08-28T05:09:14.968Z,6.22
2018-08-28T05:10:20.980Z,6.62
2018-08-28T05:11:27.034Z,6.62
2018-08-28T05:12:32.976Z,6.72
2018-08-28T05:13:38.991Z,5.70
2018-08-28T05:14:45.010Z,6.32
2018-08-28T05:15:51.161Z,6.35
2018-08-28T05:16:57.439Z,5.93
2018-08-28T05:18:03.460Z,6.62
2018-08-28T05:19:11.517Z,5.62
2018-08-28T05:20:18.890Z,6.25
2018-08-28T05:21:25.138Z,5.95
2018-08-28T05:22:31.169Z,6.68
2018-08-28T05:23:37.176Z,6.65
2018-08-28T05:24:43.290Z,6.30
2018-08-28T05:25:49.349Z,6.80
2018-08-28T05:26:55.774Z,6.03
2018-08-28T05:28:01.653Z,6.72
2018-08-28T05:29:07.924Z,6.70
2018-08-28T05:30:13.891Z,6.07
2018-08-28T05:31:19.977Z,5.90
2018-08-28T05:32:26.041Z,6.18
2018-08-28T05:33:32.033Z,6.12
2018-08-28T05:34:37.900Z,7.30
2018-08-28T05:35:43.961Z,6.32
2018-08-28T05:36:49.694Z,5.93
2018-08-28T05:37:55.754Z,5.22
2018-08-28T05:39:01.976Z,6.00
2018-08-28T05:40:07.936Z,6.80
2018-08-28T05:41:13.963Z,6.62
2018-08-28T05:42:19.971Z,6.05
2018-08-28T05:43:26.048Z,6.30
2018-08-28T05:44:32.046Z,7.25
2018-08-28T05:45:38.188Z,6.68
2018-08-28T05:46:44.318Z,6.05
2018-08-28T05:47:50.376Z,6.57
2018-08-28T05:48:56.480Z,5.82
2018-08-28T05:50:02.597Z,6.35
2018-08-28T05:51:08.695Z,6.25
2018-08-28T05:52:14.831Z,5.62
2018-08-28T05:53:20.916Z,5.97
2018-08-28T05:54:26.955Z,6.70
2018-08-28T05:55:32.909Z,6.10
2018-08-28T05:56:39.059Z,6.47
2018-08-28T05:57:45.016Z,5.53
2018-08-28T05:58:51.068Z,6.20
2018-08-28T05:59:57.151Z,6.70
2018-08-28T06:01:03.011Z,8.23
2018-08-28T06:02:09.180Z,4.97
2018-08-28T06:03:14.962Z,6.50
2018-08-28T06:04:21.268Z,6.47
2018-08-28T06:05:27.264Z,5.62
2018-08-28T06:06:33.269Z,5.93
2018-08-28T06:07:39.384Z,6.78
2018-08-28T06:08:45.518Z,6.87
2018-08-28T06:09:51.684Z,6.65
2018-08-28T06:10:57.572Z,5.43
2018-08-28T06:12:04.100Z,6.75
2018-08-28T06:13:10.108Z,6.03
2018-08-28T06:14:16.122Z,6.50
2018-08-28T06:15:22.291Z,6.35
2018-08-28T06:16:28.346Z,6.30
2018-08-28T06:17:34.492Z,6.28
2018-08-28T06:18:40.279Z,5.68
2018-08-28T06:19:46.604Z,5.80
2018-08-28T06:20:52.827Z,6.15
2018-08-28T06:21:59.254Z,5.95
2018-08-28T06:23:04.806Z,7.00
2018-08-28T06:24:10.889Z,5.25
2018-08-28T06:25:17.170Z,5.97
2018-08-28T06:26:23.239Z,5.30
2018-08-28T06:27:29.344Z,4.82
2018-08-28T06:28:35.325Z,5.57
2018-08-28T06:29:41.427Z,5.22
2018-08-28T06:30:47.419Z,5.20
2018-08-28T06:31:53.417Z,5.07
2018-08-28T06:32:59.465Z,4.20
2018-08-28T06:34:05.259Z,4.68
2018-08-28T06:35:11.353Z,5.05
2018-08-28T06:36:17.400Z,4.97
2018-08-28T06:37:23.392Z,4.35
2018-08-28T06:38:29.569Z,4.70
2018-08-28T06:39:35.583Z,4.60
2018-08-28T06:40:42.188Z,5.32
2018-08-28T06:41:48.222Z,5.18
2018-08-28T06:42:54.266Z,4.68
2018-08-28T06:44:01.235Z,4.68
2018-08-28T06:45:07.069Z,4.90
2018-08-28T06:46:13.072Z,4.82
2018-08-28T06:47:19.083Z,4.97
2018-08-28T06:48:25.150Z,4.60
2018-08-28T06:49:31.160Z,4.53
2018-08-28T06:50:37.514Z,4.75
2018-08-28T06:51:43.239Z,4.90
2018-08-28T06:52:49.185Z,4.80
2018-08-28T06:53:55.510Z,4.43
2018-08-28T06:55:01.467Z,4.65
2018-08-28T06:56:07.543Z,5.78
2018-08-28T06:57:13.977Z,4.70
2018-08-28T06:58:19.944Z,4.10
2018-08-28T06:59:26.621Z,4.25
2018-08-28T07:00:32.626Z,3.97
2018-08-28T07:01:38.705Z,4.35
2018-08-28T07:02:44.782Z,4.82
2018-08-28T07:03:51.129Z,3.85
2018-08-28T07:04:57.260Z,3.80
2018-08-28T07:06:03.380Z,4.20
2018-08-28T07:07:09.389Z,3.42
2018-08-28T07:08:15.438Z,2.33
2018-08-28T07:09:21.500Z,2.92
2018-08-28T07:10:27.608Z,4.00
2018-08-28T07:11:33.715Z,3.50
2018-08-28T07:12:41.255Z,3.78
2018-08-28T07:13:46.950Z,3.42
2018-08-28T07:14:52.949Z,3.28
2018-08-28T07:15:58.995Z,3.45
2018-08-28T07:17:05.070Z,3.30
2018-08-28T07:18:11.212Z,3.03
2018-08-28T07:19:18.004Z,3.53
2018-08-28T07:20:24.304Z,2.62
2018-08-28T07:21:30.318Z,3.42
2018-08-28T07:22:36.461Z,2.95
2018-08-28T07:23:43.174Z,2.65
2018-08-28T07:24:49.140Z,3.33
2018-08-28T07:25:55.297Z,2.87
2018-08-28T07:27:01.460Z,2.95
2018-08-28T07:28:07.609Z,2.50
2018-08-28T07:29:13.688Z,2.45
2018-08-28T07:30:19.831Z,2.10
2018-08-28T07:31:26.003Z,3.03
2018-08-28T07:32:32.101Z,1.65
2018-08-28T07:33:38.139Z,2.08
2018-08-28T07:34:44.129Z,2.00
2018-08-28T07:35:50.440Z,1.70
2018-08-28T07:36:56.434Z,1.62
2018-08-28T07:38:02.572Z,2.37
2018-08-28T07:39:08.520Z,2.08
2018-08-28T07:40:14.432Z,2.05
2018-08-28T07:41:20.576Z,2.50
2018-08-28T07:42:26.592Z,2.05
2018-08-28T07:43:32.896Z,2.00
2018-08-28T07:44:38.869Z,1.98
2018-08-28T07:45:44.864Z,2.30
2018-08-28T07:46:51.020Z,1.77
2018-08-28T07:47:56.809Z,2.10
2018-08-28T07:49:02.904Z,2.50
2018-08-28T07:50:08.539Z,2.47
2018-08-28T07:51:14.259Z,2.00
2018-08-28T07:52:20.232Z,1.95
2018-08-28T07:53:27.109Z,1.60
2018-08-28T07:54:33.128Z,2.17
2018-08-28T07:55:39.243Z,2.12
2018-08-28T07:56:45.361Z,2.25
2018-08-28T07:57:51.349Z,2.08
2018-08-28T07:58:57.375Z,2.17
2018-08-28T08:00:03.767Z,1.80
2018-08-28T08:01:10.106Z,2.03
2018-08-28T08:02:16.400Z,1.60
2018-08-28T08:03:22.320Z,1.80
2018-08-28T08:04:28.710Z,1.65
2018-08-28T08:05:34.666Z,2.15
2018-08-28T08:06:40.723Z,2.00
2018-08-28T08:07:46.828Z,1.98
2018-08-28T08:08:52.503Z,2.03
2018-08-28T08:09:58.511Z,1.90
2018-08-28T08:11:04.655Z,1.65
2018-08-28T08:12:10.741Z,2.30
2018-08-28T08:13:16.764Z,2.28
2018-08-28T08:14:22.508Z,1.98
2018-08-28T08:15:28.614Z,1.80
2018-08-28T08:16:35.371Z,1.92
2018-08-28T08:17:41.492Z,2.47
2018-08-28T08:18:47.535Z,1.90
2018-08-28T08:19:53.561Z,1.60
2018-08-28T08:20:59.492Z,2.17
2018-08-28T08:22:05.512Z,1.62
2018-08-28T08:23:11.536Z,1.83
2018-08-28T08:24:17.655Z,1.58
2018-08-28T08:25:23.725Z,1.80
2018-08-28T08:26:29.736Z,1.90
2018-08-28T08:27:35.847Z,1.80
2018-08-28T08:28:41.876Z,1.50
2018-08-28T08:29:48.607Z,1.80
2018-08-28T08:30:54.672Z,1.40
2018-08-28T08:32:00.795Z,1.55
2018-08-28T08:33:06.603Z,1.40
2018-08-28T08:34:12.720Z,1.40
2018-08-28T08:35:18.758Z,1.65
2018-08-28T08:36:24.985Z,3.33
2018-08-28T08:37:30.755Z,1.75
2018-08-28T08:38:36.846Z,1.58
2018-08-28T08:39:42.801Z,1.65
2018-08-28T08:40:48.599Z,2.33
2018-08-28T08:41:54.278Z,1.95
2018-08-28T08:43:00.452Z,1.60
2018-08-28T08:44:07.257Z,2.40
2018-08-28T08:45:13.971Z,2.05
2018-08-28T08:46:19.647Z,2.03
2018-08-28T08:47:25.699Z,2.40
2018-08-28T08:48:32.279Z,2.10
2018-08-28T08:49:38.777Z,2.10
2018-08-28T08:50:45.064Z,2.97
2018-08-28T08:51:51.018Z,2.53
2018-08-28T08:52:57.751Z,2.30
2018-08-28T08:54:03.871Z,2.15
2018-08-28T08:55:09.629Z,2.22
2018-08-28T08:56:15.653Z,2.08
2018-08-28T08:57:21.737Z,2.65
2018-08-28T08:58:28.013Z,2.45
2018-08-28T08:59:34.000Z,2.35
2018-08-28T09:00:39.980Z,2.20
2018-08-28T09:01:46.085Z,2.30
2018-08-28T09:02:52.212Z,2.53
2018-08-28T09:03:58.447Z,2.50
2018-08-28T09:05:04.051Z,2.45
2018-08-28T09:06:10.153Z,2.70
2018-08-28T09:07:16.427Z,2.50
2018-08-28T09:08:22.694Z,2.75
2018-08-28T09:09:28.673Z,2.90
2018-08-28T09:10:35.290Z,2.75
2018-08-28T09:11:41.269Z,2.50
2018-08-28T09:12:47.429Z,3.00
2018-08-28T09:13:53.458Z,2.80
2018-08-28T09:14:59.480Z,3.20
2018-08-28T09:16:05.275Z,3.30
2018-08-28T09:17:11.319Z,3.10
2018-08-28T09:18:17.393Z,2.78
2018-08-28T09:19:23.628Z,2.53
2018-08-28T09:20:29.841Z,3.00
2018-08-28T09:21:35.932Z,2.72
2018-08-28T09:22:41.948Z,3.05
2018-08-28T09:23:48.072Z,2.87
2018-08-28T09:24:54.072Z,2.90
2018-08-28T09:26:00.346Z,3.28
2018-08-28T09:27:06.488Z,3.28
2018-08-28T09:28:12.558Z,2.80
2018-08-28T09:29:18.608Z,2.40
2018-08-28T09:30:25.090Z,3.20
2018-08-28T09:31:31.108Z,3.17
2018-08-28T09:32:37.846Z,3.10
2018-08-28T09:33:43.831Z,3.20
2018-08-28T09:34:49.947Z,2.85
2018-08-28T09:35:56.016Z,4.78
2018-08-28T09:37:02.065Z,3.83
2018-08-28T09:38:08.034Z,2.65
2018-08-28T09:39:13.827Z,2.58
2018-08-28T09:40:19.519Z,2.95
2018-08-28T09:41:30.741Z,3.20
2018-08-28T09:42:36.778Z,2.83
2018-08-28T09:43:42.956Z,3.05
2018-08-28T09:44:49.124Z,2.90
2018-08-28T09:45:55.218Z,4.07
2018-08-28T09:47:02.038Z,3.08
2018-08-28T09:48:07.806Z,4.03
2018-08-28T09:49:14.034Z,3.17
2018-08-28T09:50:20.136Z,3.15
2018-08-28T09:51:26.356Z,3.10
2018-08-28T09:52:32.354Z,2.20
2018-08-28T09:53:38.494Z,3.15
2018-08-28T09:54:44.760Z,2.78
2018-08-28T09:55:50.777Z,3.00
2018-08-28T09:56:56.792Z,2.22
2018-08-28T09:58:02.785Z,2.90
2018-08-28T09:59:09.041Z,3.30
2018-08-28T10:00:14.795Z,3.08
2018-08-28T10:01:21.077Z,3.35
2018-08-28T10:02:26.436Z,3.03
2018-08-28T10:03:32.500Z,3.25
2018-08-28T10:04:38.625Z,3.15
2018-08-28T10:05:45.625Z,2.80
2018-08-28T10:06:51.754Z,2.87
2018-08-28T10:07:57.909Z,2.03
2018-08-28T10:09:03.484Z,2.97
2018-08-28T10:10:08.803Z,2.60
2018-08-28T10:11:14.744Z,3.00
2018-08-28T10:12:20.773Z,2.30
2018-08-28T10:13:26.763Z,2.90
2018-08-28T10:14:32.899Z,2.20
2018-08-28T10:15:39.215Z,2.95
2018-08-28T10:16:45.284Z,2.55
2018-08-28T10:17:51.296Z,2.53
2018-08-28T10:18:57.403Z,3.50
2018-08-28T10:20:03.097Z,2.62
2018-08-28T10:21:09.093Z,3.35
2018-08-28T10:22:15.085Z,3.28
2018-08-28T10:23:21.038Z,3.15
2018-08-28T10:24:27.036Z,3.50
2018-08-28T10:25:33.146Z,2.83
2018-08-28T10:26:39.233Z,3.35
2018-08-28T10:27:45.240Z,2.87
2018-08-28T10:28:51.268Z,3.30
2018-08-28T10:29:57.637Z,3.30
2018-08-28T10:31:03.773Z,2.87
2018-08-28T10:32:09.758Z,3.35
2018-08-28T10:33:15.869Z,2.92
2018-08-28T10:34:21.891Z,3.15
2018-08-28T10:35:28.491Z,3.58
2018-08-28T10:36:34.604Z,3.28
2018-08-28T10:37:40.714Z,3.17
2018-08-28T10:38:46.717Z,3.10
2018-08-28T10:39:52.864Z,3.25
2018-08-28T10:40:58.940Z,3.00
2018-08-28T10:42:04.961Z,3.05
2018-08-28T10:43:11.052Z,3.50
2018-08-28T10:44:17.072Z,3.08
2018-08-28T10:45:23.192Z,2.95
2018-08-28T10:46:29.277Z,3.20
2018-08-28T10:47:35.608Z,3.25
2018-08-28T10:48:41.449Z,2.80
2018-08-28T10:49:47.500Z,3.30
2018-08-28T10:50:53.527Z,2.80
2018-08-28T10:52:00.109Z,3.12
2018-08-28T10:53:06.118Z,2.85
2018-08-28T10:54:12.279Z,2.95
2018-08-28T10:55:18.256Z,2.87
2018-08-28T10:56:24.331Z,3.20
2018-08-28T10:57:30.437Z,3.17
2018-08-28T10:58:36.503Z,2.80
2018-08-28T10:59:42.689Z,2.95
2018-08-28T11:00:48.795Z,2.90
2018-08-28T11:01:55.261Z,3.37
2018-08-28T11:03:01.383Z,3.35
2018-08-28T11:04:07.171Z,3.12
2018-08-28T11:05:13.193Z,2.70
2018-08-28T11:06:19.335Z,3.03
2018-08-28T11:07:25.316Z,3.15
2018-08-28T11:08:31.483Z,3.28
2018-08-28T11:09:37.754Z,3.10
2018-08-28T11:10:43.847Z,3.50
2018-08-28T11:11:49.832Z,2.90
2018-08-28T11:12:55.943Z,2.70
2018-08-28T11:14:02.052Z,2.83
2018-08-28T11:15:08.083Z,3.40
2018-08-28T11:16:14.293Z,3.33
2018-08-28T11:17:20.521Z,2.75
2018-08-28T11:18:26.476Z,3.28
2018-08-28T11:19:32.570Z,3.10
2018-08-28T11:20:38.740Z,3.20
2018-08-28T11:21:44.685Z,2.53
2018-08-28T11:22:50.762Z,3.35
2018-08-28T11:23:56.872Z,3.45
2018-08-28T11:25:02.800Z,2.95
2018-08-28T11:26:08.857Z,3.65
2018-08-28T11:27:14.824Z,3.35
2018-08-28T11:28:21.023Z,3.10
2018-08-28T11:29:27.091Z,3.50
2018-08-28T11:30:33.057Z,3.62
2018-08-28T11:31:39.112Z,3.30
2018-08-28T11:32:44.899Z,3.30
2018-08-28T11:33:50.985Z,3.47
2018-08-28T11:34:56.959Z,4.12
2018-08-28T11:36:03.126Z,3.10
2018-08-28T11:37:09.076Z,3.85
2018-08-28T11:38:15.272Z,3.15
2018-08-28T11:39:21.383Z,3.47
2018-08-28T11:40:27.399Z,2.30
2018-08-28T11:41:33.570Z,2.95
2018-08-28T11:42:44.128Z,3.50
2018-08-28T11:43:57.222Z,3.30
2018-08-28T11:45:15.514Z,3.67
2018-08-28T11:46:24.959Z,3.33
2018-08-28T11:47:30.975Z,2.72
2018-08-28T11:48:37.072Z,3.05
2018-08-28T11:49:43.081Z,2.85
2018-08-28T11:50:49.127Z,2.97
2018-08-28T11:51:55.079Z,3.25
2018-08-28T11:53:01.107Z,2.55
2018-08-28T11:54:07.232Z,2.50
2018-08-28T11:55:13.207Z,3.50
2018-08-28T11:56:20.079Z,3.20
2018-08-28T11:57:26.196Z,3.85
2018-08-28T11:58:32.222Z,3.20
2018-08-28T11:59:38.281Z,3.00
2018-08-28T12:00:45.024Z,3.67
2018-08-28T12:01:51.246Z,3.58
2018-08-28T12:02:57.615Z,3.47
2018-08-28T12:04:04.286Z,3.67
2018-08-28T12:05:10.331Z,3.53
2018-08-28T12:06:16.593Z,3.53
2018-08-28T12:07:22.671Z,3.30
2018-08-28T12:08:28.516Z,2.90
2018-08-28T12:09:34.535Z,2.42
2018-08-28T12:10:40.551Z,3.33
2018-08-28T12:11:46.686Z,3.08
2018-08-28T12:12:52.707Z,3.75
2018-08-28T12:13:58.678Z,3.35
2018-08-28T12:15:04.041Z,3.10
2018-08-28T12:16:10.226Z,3.40
2018-08-28T12:17:16.285Z,3.40
2018-08-28T12:18:22.315Z,3.30
2018-08-28T12:19:28.300Z,2.92
2018-08-28T12:20:34.456Z,3.42
2018-08-28T12:21:40.736Z,3.70
2018-08-28T12:22:46.780Z,4.22
2018-08-28T12:23:59.090Z,3.42
2018-08-28T12:25:04.799Z,3.60
2018-08-28T12:26:10.892Z,3.10
2018-08-28T12:27:16.877Z,2.90
2018-08-28T12:28:23.008Z,3.10
2018-08-28T12:29:29.363Z,3.00
2018-08-28T12:30:35.605Z,3.30
2018-08-28T12:31:41.629Z,3.47
2018-08-28T12:32:47.753Z,3.12
2018-08-28T12:33:53.719Z,3.42
2018-08-28T12:34:59.729Z,3.60
2018-08-28T12:36:05.830Z,3.00
2018-08-28T12:37:11.891Z,3.10
2018-08-28T12:38:18.172Z,3.28
2018-08-28T12:39:23.907Z,3.55
2018-08-28T12:40:29.935Z,3.40
2018-08-28T12:41:36.115Z,5.10
2018-08-28T12:42:42.159Z,4.15
2018-08-28T12:43:48.060Z,4.32
2018-08-28T12:44:54.172Z,3.30
2018-08-28T12:46:00.213Z,3.67
2018-08-28T12:47:06.367Z,3.25
2018-08-28T12:48:12.619Z,3.33
2018-08-28T12:49:18.712Z,3.53
2018-08-28T12:50:24.721Z,3.42
2018-08-28T12:51:30.873Z,3.30
2018-08-28T12:52:37.065Z,4.03
2018-08-28T12:53:42.581Z,4.05
2018-08-28T12:54:48.774Z,3.75
2018-08-28T12:55:54.947Z,3.65
2018-08-28T12:57:00.989Z,3.60
2018-08-28T12:58:06.983Z,3.50
2018-08-28T12:59:12.996Z,3.30
2018-08-28T13:00:18.967Z,3.40
2018-08-28T13:01:25.077Z,3.83
2018-08-28T13:02:31.507Z,3.65
2018-08-28T13:03:37.610Z,3.80
2018-08-28T13:04:44.673Z,3.85
2018-08-28T13:05:50.661Z,3.80
2018-08-28T13:06:56.672Z,3.45
2018-08-28T13:08:02.248Z,3.35
2018-08-28T13:09:08.223Z,3.87
2018-08-28T13:10:14.345Z,3.55
2018-08-28T13:11:20.344Z,3.58
2018-08-28T13:12:26.486Z,3.60
2018-08-28T13:13:32.559Z,4.00
2018-08-28T13:14:38.617Z,4.05
2018-08-28T13:15:44.804Z,3.75
2018-08-28T13:16:50.470Z,3.53
2018-08-28T13:17:56.504Z,4.12
2018-08-28T13:19:03.162Z,3.95
2018-08-28T13:20:08.949Z,4.25
2018-08-28T13:21:15.016Z,4.12
2018-08-28T13:22:21.152Z,3.85
2018-08-28T13:23:27.132Z,3.50
2018-08-28T13:24:33.164Z,3.97
2018-08-28T13:25:39.303Z,4.00
2018-08-28T13:26:45.452Z,3.62
2018-08-28T13:27:51.530Z,4.00
2018-08-28T13:28:57.528Z,3.58
2018-08-28T13:30:03.572Z,4.03
2018-08-28T13:31:09.763Z,4.30
2018-08-28T13:32:15.572Z,3.67
2018-08-28T13:33:21.560Z,3.55
2018-08-28T13:34:27.569Z,3.85
2018-08-28T13:35:33.573Z,4.05
2018-08-28T13:36:39.645Z,3.97
2018-08-28T13:37:45.618Z,3.65
2018-08-28T13:38:51.589Z,3.80
2018-08-28T13:39:57.709Z,3.90
2018-08-28T13:41:03.858Z,4.62
2018-08-28T13:42:09.959Z,3.55
2018-08-28T13:43:16.156Z,3.70
2018-08-28T13:44:22.750Z,3.60
2018-08-28T13:45:28.867Z,3.50
2018-08-28T13:46:34.896Z,3.72
2018-08-28T13:47:40.990Z,4.15
2018-08-28T13:48:46.992Z,3.80
2018-08-28T13:49:53.081Z,4.07
2018-08-28T13:50:58.706Z,4.15
2018-08-28T13:52:03.752Z,3.92
2018-08-28T13:53:10.544Z,4.20
2018-08-28T13:54:16.638Z,4.32
2018-08-28T13:55:22.770Z,2.85
2018-08-28T13:56:28.717Z,4.00
2018-08-28T13:57:34.844Z,4.30
2018-08-28T13:58:40.836Z,3.67
2018-08-28T13:59:46.929Z,3.50
2018-08-28T14:00:52.688Z,3.92
2018-08-28T14:01:58.632Z,3.10
2018-08-28T14:03:04.772Z,3.70
2018-08-28T14:04:10.750Z,3.50
2018-08-28T14:05:16.935Z,4.05
2018-08-28T14:06:23.222Z,4.18
2018-08-28T14:07:29.190Z,4.35
2018-08-28T14:08:35.173Z,4.70
2018-08-28T14:09:41.952Z,4.05
2018-08-28T14:10:47.903Z,3.62
2018-08-28T14:11:54.531Z,4.28
2018-08-28T14:13:00.614Z,4.45
2018-08-28T14:14:06.684Z,4.72
2018-08-28T14:15:12.833Z,4.15
2018-08-28T14:16:18.868Z,4.55
2018-08-28T14:17:24.996Z,3.60
2018-08-28T14:18:30.988Z,4.45
2018-08-28T14:19:36.989Z,4.30
2018-08-28T14:20:43.105Z,4.00
2018-08-28T14:21:49.249Z,4.85
2018-08-28T14:22:55.189Z,4.50
2018-08-28T14:24:00.976Z,3.30
2018-08-28T14:25:06.648Z,4.20
2018-08-28T14:26:12.448Z,4.28
2018-08-28T14:27:18.308Z,4.10
2018-08-28T14:28:24.315Z,4.03
2018-08-28T14:29:30.554Z,3.85
2018-08-28T14:30:36.707Z,3.75
2018-08-28T14:31:42.628Z,3.72
2018-08-28T14:32:48.637Z,4.20
2018-08-28T14:33:54.637Z,4.32
2018-08-28T14:35:00.851Z,4.75
2018-08-28T14:36:06.920Z,3.80
2018-08-28T14:37:13.242Z,3.65
2018-08-28T14:38:20.215Z,3.80
2018-08-28T14:39:26.297Z,5.07
2018-08-28T14:40:32.480Z,4.60
2018-08-28T14:41:38.503Z,4.20
2018-08-28T14:42:45.165Z,4.18
2018-08-28T14:43:52.145Z,4.28
2018-08-28T14:44:58.324Z,4.28